<?xml version="1.0" encoding="UTF-8" standalone="no" ?>
<gpx xmlns="http://www.topografix.com/GPX/1/1" xmlns:xsi="http://www.w3.org/2001/XMLSchema-instance" xsi:schemaLocation="http://www.topografix.com/GPX/1/1 http://www.topografix.com/GPX/1/1/gpx.xsd" version="1.1" creator="VisuGPX - https://www.visugpx.com">
  <metadata>
    <name>CANTAL Le Plomb du CANTAL</name>
    <desc><![CDATA[Montée depuis le col de Pras de Bouc]]></desc>
  </metadata>
  <trk>
    <name><![CDATA[CANTAL Le Plomb du CANTAL]]></name>
    <trkseg>
      <trkpt lat="45.05182" lon="2.79373">
        <ele>1402</ele>
        <time>2016-07-19T08:32:30.000Z</time>
      </trkpt>
      <trkpt lat="45.05196" lon="2.79346">
        <ele>1399</ele>
        <time>2016-07-19T08:34:58.000Z</time>
      </trkpt>
      <trkpt lat="45.05196" lon="2.79345">
        <ele>1399</ele>
        <time>2016-07-19T08:34:59.000Z</time>
      </trkpt>
      <trkpt lat="45.05187" lon="2.79374">
        <ele>1402</ele>
        <time>2016-07-19T08:36:34.000Z</time>
      </trkpt>
      <trkpt lat="45.05187" lon="2.79374">
        <ele>1402</ele>
        <time>2016-07-19T08:36:35.000Z</time>
      </trkpt>
      <trkpt lat="45.05206" lon="2.79354">
        <ele>1395</ele>
        <time>2016-07-19T08:37:37.000Z</time>
      </trkpt>
      <trkpt lat="45.05206" lon="2.79354">
        <ele>1396</ele>
        <time>2016-07-19T08:37:38.000Z</time>
      </trkpt>
      <trkpt lat="45.05224" lon="2.79334">
        <ele>1396</ele>
        <time>2016-07-19T08:38:39.000Z</time>
      </trkpt>
      <trkpt lat="45.05225" lon="2.79334">
        <ele>1396</ele>
        <time>2016-07-19T08:38:40.000Z</time>
      </trkpt>
      <trkpt lat="45.05249" lon="2.79333">
        <ele>1390</ele>
        <time>2016-07-19T08:39:03.000Z</time>
      </trkpt>
      <trkpt lat="45.05249" lon="2.79333">
        <ele>1390</ele>
        <time>2016-07-19T08:39:04.000Z</time>
      </trkpt>
      <trkpt lat="45.05272" lon="2.79336">
        <ele>1393</ele>
        <time>2016-07-19T08:39:31.000Z</time>
      </trkpt>
      <trkpt lat="45.05273" lon="2.79336">
        <ele>1394</ele>
        <time>2016-07-19T08:39:32.000Z</time>
      </trkpt>
      <trkpt lat="45.05296" lon="2.79342">
        <ele>1397</ele>
        <time>2016-07-19T08:39:50.000Z</time>
      </trkpt>
      <trkpt lat="45.05297" lon="2.79343">
        <ele>1397</ele>
        <time>2016-07-19T08:39:51.000Z</time>
      </trkpt>
      <trkpt lat="45.05316" lon="2.79325">
        <ele>1394</ele>
        <time>2016-07-19T08:40:18.000Z</time>
      </trkpt>
      <trkpt lat="45.05316" lon="2.79323">
        <ele>1394</ele>
        <time>2016-07-19T08:40:19.000Z</time>
      </trkpt>
      <trkpt lat="45.05313" lon="2.7929">
        <ele>1398</ele>
        <time>2016-07-19T08:40:58.000Z</time>
      </trkpt>
      <trkpt lat="45.05312" lon="2.79289">
        <ele>1398</ele>
        <time>2016-07-19T08:40:59.000Z</time>
      </trkpt>
      <trkpt lat="45.05304" lon="2.79258">
        <ele>1399</ele>
        <time>2016-07-19T08:41:21.000Z</time>
      </trkpt>
      <trkpt lat="45.05303" lon="2.79257">
        <ele>1400</ele>
        <time>2016-07-19T08:41:22.000Z</time>
      </trkpt>
      <trkpt lat="45.05301" lon="2.79225">
        <ele>1403</ele>
        <time>2016-07-19T08:41:44.000Z</time>
      </trkpt>
      <trkpt lat="45.05301" lon="2.79223">
        <ele>1403</ele>
        <time>2016-07-19T08:41:45.000Z</time>
      </trkpt>
      <trkpt lat="45.05298" lon="2.7919">
        <ele>1405</ele>
        <time>2016-07-19T08:42:06.000Z</time>
      </trkpt>
      <trkpt lat="45.05298" lon="2.79189">
        <ele>1405</ele>
        <time>2016-07-19T08:42:07.000Z</time>
      </trkpt>
      <trkpt lat="45.05293" lon="2.79157">
        <ele>1406</ele>
        <time>2016-07-19T08:42:28.000Z</time>
      </trkpt>
      <trkpt lat="45.05293" lon="2.79156">
        <ele>1406</ele>
        <time>2016-07-19T08:42:29.000Z</time>
      </trkpt>
      <trkpt lat="45.05288" lon="2.79124">
        <ele>1407</ele>
        <time>2016-07-19T08:42:54.000Z</time>
      </trkpt>
      <trkpt lat="45.05287" lon="2.79123">
        <ele>1407</ele>
        <time>2016-07-19T08:42:55.000Z</time>
      </trkpt>
      <trkpt lat="45.05285" lon="2.7909">
        <ele>1407</ele>
        <time>2016-07-19T08:43:14.000Z</time>
      </trkpt>
      <trkpt lat="45.05286" lon="2.79088">
        <ele>1407</ele>
        <time>2016-07-19T08:43:15.000Z</time>
      </trkpt>
      <trkpt lat="45.0529" lon="2.79056">
        <ele>1406</ele>
        <time>2016-07-19T08:43:34.000Z</time>
      </trkpt>
      <trkpt lat="45.0529" lon="2.79054">
        <ele>1406</ele>
        <time>2016-07-19T08:43:35.000Z</time>
      </trkpt>
      <trkpt lat="45.05298" lon="2.79024">
        <ele>1406</ele>
        <time>2016-07-19T08:43:55.000Z</time>
      </trkpt>
      <trkpt lat="45.05298" lon="2.79023">
        <ele>1406</ele>
        <time>2016-07-19T08:43:56.000Z</time>
      </trkpt>
      <trkpt lat="45.05304" lon="2.78991">
        <ele>1406</ele>
        <time>2016-07-19T08:44:17.000Z</time>
      </trkpt>
      <trkpt lat="45.05305" lon="2.78989">
        <ele>1406</ele>
        <time>2016-07-19T08:44:18.000Z</time>
      </trkpt>
      <trkpt lat="45.05312" lon="2.78959">
        <ele>1408</ele>
        <time>2016-07-19T08:44:38.000Z</time>
      </trkpt>
      <trkpt lat="45.05313" lon="2.78957">
        <ele>1408</ele>
        <time>2016-07-19T08:44:39.000Z</time>
      </trkpt>
      <trkpt lat="45.05322" lon="2.78926">
        <ele>1410</ele>
        <time>2016-07-19T08:45:01.000Z</time>
      </trkpt>
      <trkpt lat="45.05322" lon="2.78925">
        <ele>1410</ele>
        <time>2016-07-19T08:45:02.000Z</time>
      </trkpt>
      <trkpt lat="45.05328" lon="2.78894">
        <ele>1412</ele>
        <time>2016-07-19T08:45:23.000Z</time>
      </trkpt>
      <trkpt lat="45.05327" lon="2.78892">
        <ele>1412</ele>
        <time>2016-07-19T08:45:24.000Z</time>
      </trkpt>
      <trkpt lat="45.05318" lon="2.78863">
        <ele>1412</ele>
        <time>2016-07-19T08:45:47.000Z</time>
      </trkpt>
      <trkpt lat="45.05317" lon="2.78862">
        <ele>1411</ele>
        <time>2016-07-19T08:45:48.000Z</time>
      </trkpt>
      <trkpt lat="45.05302" lon="2.78838">
        <ele>1406</ele>
        <time>2016-07-19T08:46:58.000Z</time>
      </trkpt>
      <trkpt lat="45.05302" lon="2.78837">
        <ele>1407</ele>
        <time>2016-07-19T08:46:59.000Z</time>
      </trkpt>
      <trkpt lat="45.05295" lon="2.78806">
        <ele>1413</ele>
        <time>2016-07-19T08:47:26.000Z</time>
      </trkpt>
      <trkpt lat="45.05295" lon="2.78805">
        <ele>1413</ele>
        <time>2016-07-19T08:47:27.000Z</time>
      </trkpt>
      <trkpt lat="45.05288" lon="2.78773">
        <ele>1414</ele>
        <time>2016-07-19T08:47:50.000Z</time>
      </trkpt>
      <trkpt lat="45.05288" lon="2.78771">
        <ele>1414</ele>
        <time>2016-07-19T08:47:51.000Z</time>
      </trkpt>
      <trkpt lat="45.05278" lon="2.78742">
        <ele>1417</ele>
        <time>2016-07-19T08:48:15.000Z</time>
      </trkpt>
      <trkpt lat="45.05278" lon="2.78741">
        <ele>1417</ele>
        <time>2016-07-19T08:48:16.000Z</time>
      </trkpt>
      <trkpt lat="45.05275" lon="2.78709">
        <ele>1415</ele>
        <time>2016-07-19T08:49:04.000Z</time>
      </trkpt>
      <trkpt lat="45.05275" lon="2.78708">
        <ele>1415</ele>
        <time>2016-07-19T08:49:05.000Z</time>
      </trkpt>
      <trkpt lat="45.05276" lon="2.78676">
        <ele>1420</ele>
        <time>2016-07-19T08:49:29.000Z</time>
      </trkpt>
      <trkpt lat="45.05275" lon="2.78675">
        <ele>1420</ele>
        <time>2016-07-19T08:49:30.000Z</time>
      </trkpt>
      <trkpt lat="45.05276" lon="2.78642">
        <ele>1422</ele>
        <time>2016-07-19T08:49:52.000Z</time>
      </trkpt>
      <trkpt lat="45.05275" lon="2.78641">
        <ele>1422</ele>
        <time>2016-07-19T08:49:53.000Z</time>
      </trkpt>
      <trkpt lat="45.05272" lon="2.78609">
        <ele>1424</ele>
        <time>2016-07-19T08:50:18.000Z</time>
      </trkpt>
      <trkpt lat="45.05271" lon="2.78607">
        <ele>1424</ele>
        <time>2016-07-19T08:50:19.000Z</time>
      </trkpt>
      <trkpt lat="45.05266" lon="2.78576">
        <ele>1426</ele>
        <time>2016-07-19T08:50:42.000Z</time>
      </trkpt>
      <trkpt lat="45.05265" lon="2.78574">
        <ele>1426</ele>
        <time>2016-07-19T08:50:43.000Z</time>
      </trkpt>
      <trkpt lat="45.0526" lon="2.78542">
        <ele>1428</ele>
        <time>2016-07-19T08:51:07.000Z</time>
      </trkpt>
      <trkpt lat="45.0526" lon="2.78541">
        <ele>1428</ele>
        <time>2016-07-19T08:51:08.000Z</time>
      </trkpt>
      <trkpt lat="45.05256" lon="2.78509">
        <ele>1428</ele>
        <time>2016-07-19T08:51:30.000Z</time>
      </trkpt>
      <trkpt lat="45.05256" lon="2.78508">
        <ele>1428</ele>
        <time>2016-07-19T08:51:31.000Z</time>
      </trkpt>
      <trkpt lat="45.05251" lon="2.78476">
        <ele>1425</ele>
        <time>2016-07-19T08:52:20.000Z</time>
      </trkpt>
      <trkpt lat="45.05251" lon="2.78475">
        <ele>1426</ele>
        <time>2016-07-19T08:52:21.000Z</time>
      </trkpt>
      <trkpt lat="45.05253" lon="2.78443">
        <ele>1430</ele>
        <time>2016-07-19T08:52:46.000Z</time>
      </trkpt>
      <trkpt lat="45.05253" lon="2.78442">
        <ele>1431</ele>
        <time>2016-07-19T08:52:47.000Z</time>
      </trkpt>
      <trkpt lat="45.05252" lon="2.78409">
        <ele>1437</ele>
        <time>2016-07-19T08:53:18.000Z</time>
      </trkpt>
      <trkpt lat="45.05252" lon="2.78408">
        <ele>1437</ele>
        <time>2016-07-19T08:53:19.000Z</time>
      </trkpt>
      <trkpt lat="45.05255" lon="2.78377">
        <ele>1441</ele>
        <time>2016-07-19T08:53:51.000Z</time>
      </trkpt>
      <trkpt lat="45.05255" lon="2.78376">
        <ele>1441</ele>
        <time>2016-07-19T08:53:52.000Z</time>
      </trkpt>
      <trkpt lat="45.05259" lon="2.78344">
        <ele>1446</ele>
        <time>2016-07-19T08:54:27.000Z</time>
      </trkpt>
      <trkpt lat="45.05258" lon="2.78344">
        <ele>1446</ele>
        <time>2016-07-19T08:54:28.000Z</time>
      </trkpt>
      <trkpt lat="45.05257" lon="2.78311">
        <ele>1450</ele>
        <time>2016-07-19T08:55:10.000Z</time>
      </trkpt>
      <trkpt lat="45.05257" lon="2.7831">
        <ele>1450</ele>
        <time>2016-07-19T08:55:11.000Z</time>
      </trkpt>
      <trkpt lat="45.05254" lon="2.78278">
        <ele>1456</ele>
        <time>2016-07-19T08:55:49.000Z</time>
      </trkpt>
      <trkpt lat="45.05254" lon="2.78277">
        <ele>1456</ele>
        <time>2016-07-19T08:55:50.000Z</time>
      </trkpt>
      <trkpt lat="45.05254" lon="2.78245">
        <ele>1461</ele>
        <time>2016-07-19T08:56:38.000Z</time>
      </trkpt>
      <trkpt lat="45.05254" lon="2.78244">
        <ele>1461</ele>
        <time>2016-07-19T08:56:39.000Z</time>
      </trkpt>
      <trkpt lat="45.05265" lon="2.78216">
        <ele>1464</ele>
        <time>2016-07-19T08:57:09.000Z</time>
      </trkpt>
      <trkpt lat="45.05265" lon="2.78215">
        <ele>1464</ele>
        <time>2016-07-19T08:57:10.000Z</time>
      </trkpt>
      <trkpt lat="45.05267" lon="2.78183">
        <ele>1470</ele>
        <time>2016-07-19T08:57:50.000Z</time>
      </trkpt>
      <trkpt lat="45.05267" lon="2.78182">
        <ele>1470</ele>
        <time>2016-07-19T08:57:51.000Z</time>
      </trkpt>
      <trkpt lat="45.05274" lon="2.78151">
        <ele>1474</ele>
        <time>2016-07-19T08:58:35.000Z</time>
      </trkpt>
      <trkpt lat="45.05274" lon="2.7815">
        <ele>1475</ele>
        <time>2016-07-19T08:58:36.000Z</time>
      </trkpt>
      <trkpt lat="45.05278" lon="2.78118">
        <ele>1480</ele>
        <time>2016-07-19T08:59:19.000Z</time>
      </trkpt>
      <trkpt lat="45.05278" lon="2.78117">
        <ele>1480</ele>
        <time>2016-07-19T08:59:20.000Z</time>
      </trkpt>
      <trkpt lat="45.05283" lon="2.78085">
        <ele>1488</ele>
        <time>2016-07-19T09:01:02.000Z</time>
      </trkpt>
      <trkpt lat="45.05284" lon="2.78084">
        <ele>1489</ele>
        <time>2016-07-19T09:01:03.000Z</time>
      </trkpt>
      <trkpt lat="45.05287" lon="2.78053">
        <ele>1493</ele>
        <time>2016-07-19T09:01:45.000Z</time>
      </trkpt>
      <trkpt lat="45.05287" lon="2.78052">
        <ele>1493</ele>
        <time>2016-07-19T09:01:46.000Z</time>
      </trkpt>
      <trkpt lat="45.0529" lon="2.78021">
        <ele>1497</ele>
        <time>2016-07-19T09:02:47.000Z</time>
      </trkpt>
      <trkpt lat="45.05291" lon="2.7802">
        <ele>1498</ele>
        <time>2016-07-19T09:02:48.000Z</time>
      </trkpt>
      <trkpt lat="45.05296" lon="2.77989">
        <ele>1505</ele>
        <time>2016-07-19T09:03:21.000Z</time>
      </trkpt>
      <trkpt lat="45.05296" lon="2.77988">
        <ele>1505</ele>
        <time>2016-07-19T09:03:22.000Z</time>
      </trkpt>
      <trkpt lat="45.05299" lon="2.77955">
        <ele>1507</ele>
        <time>2016-07-19T09:03:50.000Z</time>
      </trkpt>
      <trkpt lat="45.05299" lon="2.77954">
        <ele>1507</ele>
        <time>2016-07-19T09:03:51.000Z</time>
      </trkpt>
      <trkpt lat="45.05299" lon="2.77922">
        <ele>1511</ele>
        <time>2016-07-19T09:04:18.000Z</time>
      </trkpt>
      <trkpt lat="45.05299" lon="2.77921">
        <ele>1511</ele>
        <time>2016-07-19T09:04:19.000Z</time>
      </trkpt>
      <trkpt lat="45.05299" lon="2.77889">
        <ele>1512</ele>
        <time>2016-07-19T09:04:45.000Z</time>
      </trkpt>
      <trkpt lat="45.05299" lon="2.77887">
        <ele>1512</ele>
        <time>2016-07-19T09:04:46.000Z</time>
      </trkpt>
      <trkpt lat="45.05302" lon="2.77855">
        <ele>1515</ele>
        <time>2016-07-19T09:05:16.000Z</time>
      </trkpt>
      <trkpt lat="45.05302" lon="2.77854">
        <ele>1515</ele>
        <time>2016-07-19T09:05:17.000Z</time>
      </trkpt>
      <trkpt lat="45.05303" lon="2.77821">
        <ele>1514</ele>
        <time>2016-07-19T09:05:48.000Z</time>
      </trkpt>
      <trkpt lat="45.05302" lon="2.77821">
        <ele>1514</ele>
        <time>2016-07-19T09:05:49.000Z</time>
      </trkpt>
      <trkpt lat="45.05308" lon="2.77789">
        <ele>1519</ele>
        <time>2016-07-19T09:06:26.000Z</time>
      </trkpt>
      <trkpt lat="45.05308" lon="2.77789">
        <ele>1519</ele>
        <time>2016-07-19T09:06:27.000Z</time>
      </trkpt>
      <trkpt lat="45.05316" lon="2.77758">
        <ele>1520</ele>
        <time>2016-07-19T09:07:06.000Z</time>
      </trkpt>
      <trkpt lat="45.05316" lon="2.77757">
        <ele>1520</ele>
        <time>2016-07-19T09:07:07.000Z</time>
      </trkpt>
      <trkpt lat="45.05329" lon="2.77731">
        <ele>1521</ele>
        <time>2016-07-19T09:08:17.000Z</time>
      </trkpt>
      <trkpt lat="45.05344" lon="2.77707">
        <ele>1524</ele>
        <time>2016-07-19T09:09:47.000Z</time>
      </trkpt>
      <trkpt lat="45.05345" lon="2.77706">
        <ele>1524</ele>
        <time>2016-07-19T09:09:48.000Z</time>
      </trkpt>
      <trkpt lat="45.05352" lon="2.77676">
        <ele>1527</ele>
        <time>2016-07-19T09:10:29.000Z</time>
      </trkpt>
      <trkpt lat="45.05352" lon="2.77675">
        <ele>1527</ele>
        <time>2016-07-19T09:10:30.000Z</time>
      </trkpt>
      <trkpt lat="45.05365" lon="2.77647">
        <ele>1528</ele>
        <time>2016-07-19T09:11:11.000Z</time>
      </trkpt>
      <trkpt lat="45.05365" lon="2.77646">
        <ele>1528</ele>
        <time>2016-07-19T09:11:12.000Z</time>
      </trkpt>
      <trkpt lat="45.05378" lon="2.77619">
        <ele>1531</ele>
        <time>2016-07-19T09:11:43.000Z</time>
      </trkpt>
      <trkpt lat="45.05378" lon="2.77619">
        <ele>1531</ele>
        <time>2016-07-19T09:11:44.000Z</time>
      </trkpt>
      <trkpt lat="45.0539" lon="2.77591">
        <ele>1537</ele>
        <time>2016-07-19T09:12:23.000Z</time>
      </trkpt>
      <trkpt lat="45.0539" lon="2.7759">
        <ele>1538</ele>
        <time>2016-07-19T09:12:24.000Z</time>
      </trkpt>
      <trkpt lat="45.05406" lon="2.77567">
        <ele>1541</ele>
        <time>2016-07-19T09:13:06.000Z</time>
      </trkpt>
      <trkpt lat="45.05406" lon="2.77566">
        <ele>1541</ele>
        <time>2016-07-19T09:13:07.000Z</time>
      </trkpt>
      <trkpt lat="45.05423" lon="2.77545">
        <ele>1546</ele>
        <time>2016-07-19T09:14:59.000Z</time>
      </trkpt>
      <trkpt lat="45.05423" lon="2.77544">
        <ele>1546</ele>
        <time>2016-07-19T09:15:00.000Z</time>
      </trkpt>
      <trkpt lat="45.0544" lon="2.77522">
        <ele>1550</ele>
        <time>2016-07-19T09:15:44.000Z</time>
      </trkpt>
      <trkpt lat="45.0544" lon="2.77522">
        <ele>1551</ele>
        <time>2016-07-19T09:15:45.000Z</time>
      </trkpt>
      <trkpt lat="45.05455" lon="2.77497">
        <ele>1558</ele>
        <time>2016-07-19T09:16:28.000Z</time>
      </trkpt>
      <trkpt lat="45.05455" lon="2.77496">
        <ele>1558</ele>
        <time>2016-07-19T09:16:29.000Z</time>
      </trkpt>
      <trkpt lat="45.0547" lon="2.77471">
        <ele>1568</ele>
        <time>2016-07-19T09:17:45.000Z</time>
      </trkpt>
      <trkpt lat="45.0547" lon="2.7747">
        <ele>1569</ele>
        <time>2016-07-19T09:17:46.000Z</time>
      </trkpt>
      <trkpt lat="45.05469" lon="2.77438">
        <ele>1575</ele>
        <time>2016-07-19T09:19:08.000Z</time>
      </trkpt>
      <trkpt lat="45.05469" lon="2.77437">
        <ele>1575</ele>
        <time>2016-07-19T09:19:09.000Z</time>
      </trkpt>
      <trkpt lat="45.05462" lon="2.77407">
        <ele>1583</ele>
        <time>2016-07-19T09:21:53.000Z</time>
      </trkpt>
      <trkpt lat="45.05462" lon="2.77407">
        <ele>1583</ele>
        <time>2016-07-19T09:21:54.000Z</time>
      </trkpt>
      <trkpt lat="45.05468" lon="2.77375">
        <ele>1592</ele>
        <time>2016-07-19T09:22:43.000Z</time>
      </trkpt>
      <trkpt lat="45.05468" lon="2.77375">
        <ele>1592</ele>
        <time>2016-07-19T09:22:44.000Z</time>
      </trkpt>
      <trkpt lat="45.05448" lon="2.77359">
        <ele>1596</ele>
        <time>2016-07-19T09:23:34.000Z</time>
      </trkpt>
      <trkpt lat="45.05447" lon="2.77359">
        <ele>1596</ele>
        <time>2016-07-19T09:23:35.000Z</time>
      </trkpt>
      <trkpt lat="45.05425" lon="2.77365">
        <ele>1600</ele>
        <time>2016-07-19T09:24:15.000Z</time>
      </trkpt>
      <trkpt lat="45.05424" lon="2.77365">
        <ele>1600</ele>
        <time>2016-07-19T09:24:16.000Z</time>
      </trkpt>
      <trkpt lat="45.05402" lon="2.77365">
        <ele>1607</ele>
        <time>2016-07-19T09:24:54.000Z</time>
      </trkpt>
      <trkpt lat="45.05401" lon="2.77366">
        <ele>1607</ele>
        <time>2016-07-19T09:24:55.000Z</time>
      </trkpt>
      <trkpt lat="45.05378" lon="2.77363">
        <ele>1611</ele>
        <time>2016-07-19T09:25:32.000Z</time>
      </trkpt>
      <trkpt lat="45.05377" lon="2.77363">
        <ele>1612</ele>
        <time>2016-07-19T09:25:33.000Z</time>
      </trkpt>
      <trkpt lat="45.05378" lon="2.7733">
        <ele>1618</ele>
        <time>2016-07-19T09:26:51.000Z</time>
      </trkpt>
      <trkpt lat="45.05378" lon="2.77329">
        <ele>1618</ele>
        <time>2016-07-19T09:26:52.000Z</time>
      </trkpt>
      <trkpt lat="45.05387" lon="2.77299">
        <ele>1621</ele>
        <time>2016-07-19T09:27:26.000Z</time>
      </trkpt>
      <trkpt lat="45.05387" lon="2.77299">
        <ele>1621</ele>
        <time>2016-07-19T09:27:27.000Z</time>
      </trkpt>
      <trkpt lat="45.05395" lon="2.77268">
        <ele>1626</ele>
        <time>2016-07-19T09:28:07.000Z</time>
      </trkpt>
      <trkpt lat="45.05395" lon="2.77267">
        <ele>1626</ele>
        <time>2016-07-19T09:28:08.000Z</time>
      </trkpt>
      <trkpt lat="45.05404" lon="2.77237">
        <ele>1630</ele>
        <time>2016-07-19T09:28:39.000Z</time>
      </trkpt>
      <trkpt lat="45.05404" lon="2.77236">
        <ele>1631</ele>
        <time>2016-07-19T09:28:40.000Z</time>
      </trkpt>
      <trkpt lat="45.05412" lon="2.77206">
        <ele>1638</ele>
        <time>2016-07-19T09:29:22.000Z</time>
      </trkpt>
      <trkpt lat="45.05412" lon="2.77206">
        <ele>1638</ele>
        <time>2016-07-19T09:29:23.000Z</time>
      </trkpt>
      <trkpt lat="45.05423" lon="2.77177">
        <ele>1642</ele>
        <time>2016-07-19T09:32:05.000Z</time>
      </trkpt>
      <trkpt lat="45.05423" lon="2.77176">
        <ele>1642</ele>
        <time>2016-07-19T09:32:06.000Z</time>
      </trkpt>
      <trkpt lat="45.05432" lon="2.77147">
        <ele>1646</ele>
        <time>2016-07-19T09:32:48.000Z</time>
      </trkpt>
      <trkpt lat="45.05433" lon="2.77146">
        <ele>1647</ele>
        <time>2016-07-19T09:32:49.000Z</time>
      </trkpt>
      <trkpt lat="45.05441" lon="2.77116">
        <ele>1651</ele>
        <time>2016-07-19T09:33:28.000Z</time>
      </trkpt>
      <trkpt lat="45.05441" lon="2.77116">
        <ele>1651</ele>
        <time>2016-07-19T09:33:29.000Z</time>
      </trkpt>
      <trkpt lat="45.05449" lon="2.77085">
        <ele>1658</ele>
        <time>2016-07-19T09:34:35.000Z</time>
      </trkpt>
      <trkpt lat="45.05449" lon="2.77084">
        <ele>1658</ele>
        <time>2016-07-19T09:34:36.000Z</time>
      </trkpt>
      <trkpt lat="45.05458" lon="2.77055">
        <ele>1663</ele>
        <time>2016-07-19T09:35:12.000Z</time>
      </trkpt>
      <trkpt lat="45.05458" lon="2.77054">
        <ele>1663</ele>
        <time>2016-07-19T09:35:13.000Z</time>
      </trkpt>
      <trkpt lat="45.05469" lon="2.77026">
        <ele>1666</ele>
        <time>2016-07-19T09:35:46.000Z</time>
      </trkpt>
      <trkpt lat="45.05469" lon="2.77025">
        <ele>1667</ele>
        <time>2016-07-19T09:35:47.000Z</time>
      </trkpt>
      <trkpt lat="45.05479" lon="2.76995">
        <ele>1669</ele>
        <time>2016-07-19T09:36:18.000Z</time>
      </trkpt>
      <trkpt lat="45.05479" lon="2.76994">
        <ele>1669</ele>
        <time>2016-07-19T09:36:19.000Z</time>
      </trkpt>
      <trkpt lat="45.05492" lon="2.76968">
        <ele>1673</ele>
        <time>2016-07-19T09:36:48.000Z</time>
      </trkpt>
      <trkpt lat="45.05492" lon="2.76967">
        <ele>1673</ele>
        <time>2016-07-19T09:36:49.000Z</time>
      </trkpt>
      <trkpt lat="45.05513" lon="2.76952">
        <ele>1681</ele>
        <time>2016-07-19T09:40:26.000Z</time>
      </trkpt>
      <trkpt lat="45.05504" lon="2.76922">
        <ele>1689</ele>
        <time>2016-07-19T09:48:39.000Z</time>
      </trkpt>
      <trkpt lat="45.05505" lon="2.76922">
        <ele>1689</ele>
        <time>2016-07-19T09:48:40.000Z</time>
      </trkpt>
      <trkpt lat="45.05516" lon="2.76894">
        <ele>1691</ele>
        <time>2016-07-19T09:49:14.000Z</time>
      </trkpt>
      <trkpt lat="45.05516" lon="2.76893">
        <ele>1691</ele>
        <time>2016-07-19T09:49:15.000Z</time>
      </trkpt>
      <trkpt lat="45.05527" lon="2.76864">
        <ele>1696</ele>
        <time>2016-07-19T09:49:50.000Z</time>
      </trkpt>
      <trkpt lat="45.05527" lon="2.76864">
        <ele>1696</ele>
        <time>2016-07-19T09:49:51.000Z</time>
      </trkpt>
      <trkpt lat="45.05539" lon="2.76835">
        <ele>1702</ele>
        <time>2016-07-19T09:50:25.000Z</time>
      </trkpt>
      <trkpt lat="45.0554" lon="2.76835">
        <ele>1703</ele>
        <time>2016-07-19T09:50:26.000Z</time>
      </trkpt>
      <trkpt lat="45.05552" lon="2.76808">
        <ele>1704</ele>
        <time>2016-07-19T09:50:57.000Z</time>
      </trkpt>
      <trkpt lat="45.05552" lon="2.76807">
        <ele>1705</ele>
        <time>2016-07-19T09:50:58.000Z</time>
      </trkpt>
      <trkpt lat="45.05562" lon="2.76778">
        <ele>1710</ele>
        <time>2016-07-19T09:51:33.000Z</time>
      </trkpt>
      <trkpt lat="45.05563" lon="2.76777">
        <ele>1710</ele>
        <time>2016-07-19T09:51:34.000Z</time>
      </trkpt>
      <trkpt lat="45.05572" lon="2.76748">
        <ele>1717</ele>
        <time>2016-07-19T09:52:14.000Z</time>
      </trkpt>
      <trkpt lat="45.05572" lon="2.76747">
        <ele>1717</ele>
        <time>2016-07-19T09:52:15.000Z</time>
      </trkpt>
      <trkpt lat="45.05581" lon="2.76718">
        <ele>1723</ele>
        <time>2016-07-19T09:52:53.000Z</time>
      </trkpt>
      <trkpt lat="45.05581" lon="2.76717">
        <ele>1723</ele>
        <time>2016-07-19T09:52:54.000Z</time>
      </trkpt>
      <trkpt lat="45.05588" lon="2.76686">
        <ele>1727</ele>
        <time>2016-07-19T09:53:29.000Z</time>
      </trkpt>
      <trkpt lat="45.05588" lon="2.76685">
        <ele>1727</ele>
        <time>2016-07-19T09:53:30.000Z</time>
      </trkpt>
      <trkpt lat="45.05594" lon="2.76654">
        <ele>1732</ele>
        <time>2016-07-19T09:56:27.000Z</time>
      </trkpt>
      <trkpt lat="45.05595" lon="2.76654">
        <ele>1732</ele>
        <time>2016-07-19T09:56:28.000Z</time>
      </trkpt>
      <trkpt lat="45.05602" lon="2.76623">
        <ele>1738</ele>
        <time>2016-07-19T09:57:03.000Z</time>
      </trkpt>
      <trkpt lat="45.05602" lon="2.76622">
        <ele>1738</ele>
        <time>2016-07-19T09:57:04.000Z</time>
      </trkpt>
      <trkpt lat="45.0561" lon="2.76591">
        <ele>1738</ele>
        <time>2016-07-19T09:57:39.000Z</time>
      </trkpt>
      <trkpt lat="45.0561" lon="2.7659">
        <ele>1738</ele>
        <time>2016-07-19T09:57:40.000Z</time>
      </trkpt>
      <trkpt lat="45.05622" lon="2.76563">
        <ele>1740</ele>
        <time>2016-07-19T09:58:12.000Z</time>
      </trkpt>
      <trkpt lat="45.05623" lon="2.76562">
        <ele>1740</ele>
        <time>2016-07-19T09:58:13.000Z</time>
      </trkpt>
      <trkpt lat="45.05633" lon="2.76533">
        <ele>1746</ele>
        <time>2016-07-19T09:58:49.000Z</time>
      </trkpt>
      <trkpt lat="45.05634" lon="2.76533">
        <ele>1746</ele>
        <time>2016-07-19T09:58:50.000Z</time>
      </trkpt>
      <trkpt lat="45.05635" lon="2.765">
        <ele>1752</ele>
        <time>2016-07-19T09:59:32.000Z</time>
      </trkpt>
      <trkpt lat="45.05635" lon="2.76499">
        <ele>1753</ele>
        <time>2016-07-19T09:59:33.000Z</time>
      </trkpt>
      <trkpt lat="45.05639" lon="2.76467">
        <ele>1764</ele>
        <time>2016-07-19T10:00:11.000Z</time>
      </trkpt>
      <trkpt lat="45.05639" lon="2.76466">
        <ele>1764</ele>
        <time>2016-07-19T10:00:12.000Z</time>
      </trkpt>
      <trkpt lat="45.05647" lon="2.76436">
        <ele>1769</ele>
        <time>2016-07-19T10:00:56.000Z</time>
      </trkpt>
      <trkpt lat="45.05647" lon="2.76436">
        <ele>1769</ele>
        <time>2016-07-19T10:00:57.000Z</time>
      </trkpt>
      <trkpt lat="45.05657" lon="2.76407">
        <ele>1775</ele>
        <time>2016-07-19T10:01:38.000Z</time>
      </trkpt>
      <trkpt lat="45.05657" lon="2.76406">
        <ele>1775</ele>
        <time>2016-07-19T10:01:39.000Z</time>
      </trkpt>
      <trkpt lat="45.05664" lon="2.76375">
        <ele>1780</ele>
        <time>2016-07-19T10:04:11.000Z</time>
      </trkpt>
      <trkpt lat="45.05664" lon="2.76374">
        <ele>1781</ele>
        <time>2016-07-19T10:04:12.000Z</time>
      </trkpt>
      <trkpt lat="45.05677" lon="2.76348">
        <ele>1789</ele>
        <time>2016-07-19T10:04:43.000Z</time>
      </trkpt>
      <trkpt lat="45.05677" lon="2.76347">
        <ele>1789</ele>
        <time>2016-07-19T10:04:44.000Z</time>
      </trkpt>
      <trkpt lat="45.05687" lon="2.76318">
        <ele>1792</ele>
        <time>2016-07-19T10:07:15.000Z</time>
      </trkpt>
      <trkpt lat="45.05687" lon="2.76317">
        <ele>1792</ele>
        <time>2016-07-19T10:07:16.000Z</time>
      </trkpt>
      <trkpt lat="45.05701" lon="2.76292">
        <ele>1794</ele>
        <time>2016-07-19T10:07:46.000Z</time>
      </trkpt>
      <trkpt lat="45.05702" lon="2.76291">
        <ele>1794</ele>
        <time>2016-07-19T10:07:47.000Z</time>
      </trkpt>
      <trkpt lat="45.05719" lon="2.76269">
        <ele>1798</ele>
        <time>2016-07-19T10:08:16.000Z</time>
      </trkpt>
      <trkpt lat="45.05719" lon="2.76268">
        <ele>1798</ele>
        <time>2016-07-19T10:08:17.000Z</time>
      </trkpt>
      <trkpt lat="45.05736" lon="2.76246">
        <ele>1803</ele>
        <time>2016-07-19T10:08:51.000Z</time>
      </trkpt>
      <trkpt lat="45.05736" lon="2.76245">
        <ele>1803</ele>
        <time>2016-07-19T10:08:52.000Z</time>
      </trkpt>
      <trkpt lat="45.05757" lon="2.76225">
        <ele>1804</ele>
        <time>2016-07-19T10:10:07.000Z</time>
      </trkpt>
      <trkpt lat="45.05758" lon="2.76225">
        <ele>1804</ele>
        <time>2016-07-19T10:10:08.000Z</time>
      </trkpt>
      <trkpt lat="45.05774" lon="2.76203">
        <ele>1812</ele>
        <time>2016-07-19T10:10:44.000Z</time>
      </trkpt>
      <trkpt lat="45.05774" lon="2.76203">
        <ele>1812</ele>
        <time>2016-07-19T10:10:45.000Z</time>
      </trkpt>
      <trkpt lat="45.05783" lon="2.76173">
        <ele>1821</ele>
        <time>2016-07-19T10:11:37.000Z</time>
      </trkpt>
      <trkpt lat="45.05782" lon="2.76172">
        <ele>1821</ele>
        <time>2016-07-19T10:11:38.000Z</time>
      </trkpt>
      <trkpt lat="45.05804" lon="2.76163">
        <ele>1830</ele>
        <time>2016-07-19T10:14:57.000Z</time>
      </trkpt>
      <trkpt lat="45.05804" lon="2.76163">
        <ele>1830</ele>
        <time>2016-07-19T10:14:58.000Z</time>
      </trkpt>
      <trkpt lat="45.05827" lon="2.76169">
        <ele>1827</ele>
        <time>2016-07-19T10:15:38.000Z</time>
      </trkpt>
      <trkpt lat="45.05827" lon="2.76169">
        <ele>1828</ele>
        <time>2016-07-19T10:15:39.000Z</time>
      </trkpt>
      <trkpt lat="45.0585" lon="2.76174">
        <ele>1834</ele>
        <time>2016-07-19T10:16:24.000Z</time>
      </trkpt>
      <trkpt lat="45.05851" lon="2.76174">
        <ele>1835</ele>
        <time>2016-07-19T10:16:25.000Z</time>
      </trkpt>
      <trkpt lat="45.05873" lon="2.76179">
        <ele>1842</ele>
        <time>2016-07-19T10:16:59.000Z</time>
      </trkpt>
      <trkpt lat="45.05873" lon="2.76179">
        <ele>1842</ele>
        <time>2016-07-19T10:17:00.000Z</time>
      </trkpt>
      <trkpt lat="45.05896" lon="2.76174">
        <ele>1846</ele>
        <time>2016-07-19T10:17:35.000Z</time>
      </trkpt>
      <trkpt lat="45.05896" lon="2.76174">
        <ele>1846</ele>
        <time>2016-07-19T10:17:36.000Z</time>
      </trkpt>
      <trkpt lat="45.05888" lon="2.76144">
        <ele>1858</ele>
        <time>2016-07-19T10:18:30.000Z</time>
      </trkpt>
      <trkpt lat="45.05888" lon="2.76144">
        <ele>1858</ele>
        <time>2016-07-19T10:18:31.000Z</time>
      </trkpt>
      <trkpt lat="45.05865" lon="2.76145">
        <ele>1856</ele>
        <time>2016-07-19T10:37:36.000Z</time>
      </trkpt>
      <trkpt lat="45.05864" lon="2.76145">
        <ele>1856</ele>
        <time>2016-07-19T10:37:37.000Z</time>
      </trkpt>
      <trkpt lat="45.0584" lon="2.76152">
        <ele>1849</ele>
        <time>2016-07-19T10:38:20.000Z</time>
      </trkpt>
      <trkpt lat="45.0584" lon="2.76152">
        <ele>1848</ele>
        <time>2016-07-19T10:38:21.000Z</time>
      </trkpt>
      <trkpt lat="45.05818" lon="2.76161">
        <ele>1834</ele>
        <time>2016-07-19T10:40:13.000Z</time>
      </trkpt>
      <trkpt lat="45.05817" lon="2.76161">
        <ele>1834</ele>
        <time>2016-07-19T10:40:14.000Z</time>
      </trkpt>
      <trkpt lat="45.05796" lon="2.7615">
        <ele>1830</ele>
        <time>2016-07-19T10:40:48.000Z</time>
      </trkpt>
      <trkpt lat="45.05795" lon="2.76149">
        <ele>1830</ele>
        <time>2016-07-19T10:40:49.000Z</time>
      </trkpt>
      <trkpt lat="45.05776" lon="2.76132">
        <ele>1827</ele>
        <time>2016-07-19T10:41:16.000Z</time>
      </trkpt>
      <trkpt lat="45.05775" lon="2.76131">
        <ele>1827</ele>
        <time>2016-07-19T10:41:17.000Z</time>
      </trkpt>
      <trkpt lat="45.05757" lon="2.76112">
        <ele>1821</ele>
        <time>2016-07-19T10:42:22.000Z</time>
      </trkpt>
      <trkpt lat="45.05757" lon="2.76112">
        <ele>1821</ele>
        <time>2016-07-19T10:42:23.000Z</time>
      </trkpt>
      <trkpt lat="45.0578" lon="2.76116">
        <ele>1822</ele>
        <time>2016-07-19T10:43:47.000Z</time>
      </trkpt>
      <trkpt lat="45.05781" lon="2.76116">
        <ele>1822</ele>
        <time>2016-07-19T10:43:48.000Z</time>
      </trkpt>
      <trkpt lat="45.05802" lon="2.76105">
        <ele>1823</ele>
        <time>2016-07-19T10:44:10.000Z</time>
      </trkpt>
      <trkpt lat="45.05803" lon="2.76104">
        <ele>1823</ele>
        <time>2016-07-19T10:44:11.000Z</time>
      </trkpt>
      <trkpt lat="45.05821" lon="2.76086">
        <ele>1827</ele>
        <time>2016-07-19T10:45:40.000Z</time>
      </trkpt>
      <trkpt lat="45.05822" lon="2.76085">
        <ele>1827</ele>
        <time>2016-07-19T10:45:41.000Z</time>
      </trkpt>
      <trkpt lat="45.05845" lon="2.76085">
        <ele>1830</ele>
        <time>2016-07-19T10:46:11.000Z</time>
      </trkpt>
      <trkpt lat="45.05846" lon="2.76084">
        <ele>1830</ele>
        <time>2016-07-19T10:46:12.000Z</time>
      </trkpt>
      <trkpt lat="45.05865" lon="2.76077">
        <ele>1828</ele>
        <time>2016-07-19T10:49:31.000Z</time>
      </trkpt>
      <trkpt lat="45.05869" lon="2.76081">
        <ele>1830</ele>
        <time>2016-07-19T11:19:04.000Z</time>
      </trkpt>
      <trkpt lat="45.05891" lon="2.76072">
        <ele>1831</ele>
        <time>2016-07-19T11:21:05.000Z</time>
      </trkpt>
      <trkpt lat="45.05892" lon="2.76071">
        <ele>1831</ele>
        <time>2016-07-19T11:21:06.000Z</time>
      </trkpt>
      <trkpt lat="45.05915" lon="2.76067">
        <ele>1831</ele>
        <time>2016-07-19T11:21:33.000Z</time>
      </trkpt>
      <trkpt lat="45.05916" lon="2.76067">
        <ele>1831</ele>
        <time>2016-07-19T11:21:34.000Z</time>
      </trkpt>
      <trkpt lat="45.05938" lon="2.76072">
        <ele>1834</ele>
        <time>2016-07-19T11:22:05.000Z</time>
      </trkpt>
      <trkpt lat="45.05939" lon="2.76072">
        <ele>1834</ele>
        <time>2016-07-19T11:22:06.000Z</time>
      </trkpt>
      <trkpt lat="45.0596" lon="2.76085">
        <ele>1832</ele>
        <time>2016-07-19T11:22:39.000Z</time>
      </trkpt>
      <trkpt lat="45.05961" lon="2.76086">
        <ele>1832</ele>
        <time>2016-07-19T11:22:40.000Z</time>
      </trkpt>
      <trkpt lat="45.05982" lon="2.76099">
        <ele>1833</ele>
        <time>2016-07-19T11:23:05.000Z</time>
      </trkpt>
      <trkpt lat="45.05983" lon="2.761">
        <ele>1833</ele>
        <time>2016-07-19T11:23:06.000Z</time>
      </trkpt>
      <trkpt lat="45.06006" lon="2.76103">
        <ele>1833</ele>
        <time>2016-07-19T11:23:33.000Z</time>
      </trkpt>
      <trkpt lat="45.06006" lon="2.76103">
        <ele>1833</ele>
        <time>2016-07-19T11:23:34.000Z</time>
      </trkpt>
      <trkpt lat="45.06029" lon="2.76106">
        <ele>1828</ele>
        <time>2016-07-19T11:23:55.000Z</time>
      </trkpt>
      <trkpt lat="45.0603" lon="2.76106">
        <ele>1828</ele>
        <time>2016-07-19T11:23:56.000Z</time>
      </trkpt>
      <trkpt lat="45.06053" lon="2.76107">
        <ele>1823</ele>
        <time>2016-07-19T11:24:22.000Z</time>
      </trkpt>
      <trkpt lat="45.06054" lon="2.76108">
        <ele>1823</ele>
        <time>2016-07-19T11:24:23.000Z</time>
      </trkpt>
      <trkpt lat="45.06076" lon="2.761">
        <ele>1824</ele>
        <time>2016-07-19T11:25:36.000Z</time>
      </trkpt>
      <trkpt lat="45.06078" lon="2.76101">
        <ele>1824</ele>
        <time>2016-07-19T11:25:37.000Z</time>
      </trkpt>
      <trkpt lat="45.06101" lon="2.76094">
        <ele>1829</ele>
        <time>2016-07-19T11:25:57.000Z</time>
      </trkpt>
      <trkpt lat="45.06102" lon="2.76094">
        <ele>1829</ele>
        <time>2016-07-19T11:25:58.000Z</time>
      </trkpt>
      <trkpt lat="45.06125" lon="2.76088">
        <ele>1827</ele>
        <time>2016-07-19T11:26:19.000Z</time>
      </trkpt>
      <trkpt lat="45.06126" lon="2.76088">
        <ele>1827</ele>
        <time>2016-07-19T11:26:20.000Z</time>
      </trkpt>
      <trkpt lat="45.06149" lon="2.76087">
        <ele>1826</ele>
        <time>2016-07-19T11:26:42.000Z</time>
      </trkpt>
      <trkpt lat="45.0615" lon="2.76088">
        <ele>1825</ele>
        <time>2016-07-19T11:26:43.000Z</time>
      </trkpt>
      <trkpt lat="45.06172" lon="2.76089">
        <ele>1821</ele>
        <time>2016-07-19T11:27:22.000Z</time>
      </trkpt>
      <trkpt lat="45.06173" lon="2.76089">
        <ele>1821</ele>
        <time>2016-07-19T11:27:23.000Z</time>
      </trkpt>
      <trkpt lat="45.06195" lon="2.76083">
        <ele>1820</ele>
        <time>2016-07-19T11:27:47.000Z</time>
      </trkpt>
      <trkpt lat="45.06196" lon="2.76082">
        <ele>1820</ele>
        <time>2016-07-19T11:27:48.000Z</time>
      </trkpt>
      <trkpt lat="45.06218" lon="2.7607">
        <ele>1820</ele>
        <time>2016-07-19T11:28:09.000Z</time>
      </trkpt>
      <trkpt lat="45.06219" lon="2.76069">
        <ele>1820</ele>
        <time>2016-07-19T11:28:10.000Z</time>
      </trkpt>
      <trkpt lat="45.06242" lon="2.76065">
        <ele>1818</ele>
        <time>2016-07-19T11:28:32.000Z</time>
      </trkpt>
      <trkpt lat="45.06243" lon="2.76065">
        <ele>1818</ele>
        <time>2016-07-19T11:28:33.000Z</time>
      </trkpt>
      <trkpt lat="45.06264" lon="2.76053">
        <ele>1818</ele>
        <time>2016-07-19T11:28:53.000Z</time>
      </trkpt>
      <trkpt lat="45.06265" lon="2.76052">
        <ele>1818</ele>
        <time>2016-07-19T11:28:54.000Z</time>
      </trkpt>
      <trkpt lat="45.06288" lon="2.7605">
        <ele>1820</ele>
        <time>2016-07-19T11:29:24.000Z</time>
      </trkpt>
      <trkpt lat="45.06289" lon="2.76051">
        <ele>1820</ele>
        <time>2016-07-19T11:29:25.000Z</time>
      </trkpt>
      <trkpt lat="45.06294" lon="2.76082">
        <ele>1814</ele>
        <time>2016-07-19T11:29:47.000Z</time>
      </trkpt>
      <trkpt lat="45.06294" lon="2.76084">
        <ele>1814</ele>
        <time>2016-07-19T11:29:48.000Z</time>
      </trkpt>
      <trkpt lat="45.0631" lon="2.76106">
        <ele>1810</ele>
        <time>2016-07-19T11:30:15.000Z</time>
      </trkpt>
      <trkpt lat="45.06311" lon="2.76107">
        <ele>1809</ele>
        <time>2016-07-19T11:30:16.000Z</time>
      </trkpt>
      <trkpt lat="45.06334" lon="2.76108">
        <ele>1810</ele>
        <time>2016-07-19T11:32:42.000Z</time>
      </trkpt>
      <trkpt lat="45.06334" lon="2.76108">
        <ele>1810</ele>
        <time>2016-07-19T11:32:43.000Z</time>
      </trkpt>
      <trkpt lat="45.06348" lon="2.76134">
        <ele>1807</ele>
        <time>2016-07-19T11:33:10.000Z</time>
      </trkpt>
      <trkpt lat="45.06349" lon="2.76135">
        <ele>1807</ele>
        <time>2016-07-19T11:33:11.000Z</time>
      </trkpt>
      <trkpt lat="45.0637" lon="2.76147">
        <ele>1802</ele>
        <time>2016-07-19T11:33:44.000Z</time>
      </trkpt>
      <trkpt lat="45.0637" lon="2.76147">
        <ele>1802</ele>
        <time>2016-07-19T11:33:45.000Z</time>
      </trkpt>
      <trkpt lat="45.06369" lon="2.76179">
        <ele>1818</ele>
        <time>2016-07-19T11:34:36.000Z</time>
      </trkpt>
      <trkpt lat="45.06369" lon="2.7618">
        <ele>1817</ele>
        <time>2016-07-19T11:34:37.000Z</time>
      </trkpt>
      <trkpt lat="45.06376" lon="2.7621">
        <ele>1807</ele>
        <time>2016-07-19T11:35:01.000Z</time>
      </trkpt>
      <trkpt lat="45.06376" lon="2.76212">
        <ele>1806</ele>
        <time>2016-07-19T11:35:02.000Z</time>
      </trkpt>
      <trkpt lat="45.06389" lon="2.76239">
        <ele>1792</ele>
        <time>2016-07-19T11:36:11.000Z</time>
      </trkpt>
      <trkpt lat="45.0639" lon="2.76239">
        <ele>1791</ele>
        <time>2016-07-19T11:36:12.000Z</time>
      </trkpt>
      <trkpt lat="45.06405" lon="2.76263">
        <ele>1786</ele>
        <time>2016-07-19T11:36:35.000Z</time>
      </trkpt>
      <trkpt lat="45.06406" lon="2.76265">
        <ele>1786</ele>
        <time>2016-07-19T11:36:36.000Z</time>
      </trkpt>
      <trkpt lat="45.06418" lon="2.76292">
        <ele>1781</ele>
        <time>2016-07-19T11:37:39.000Z</time>
      </trkpt>
      <trkpt lat="45.06419" lon="2.76293">
        <ele>1781</ele>
        <time>2016-07-19T11:37:40.000Z</time>
      </trkpt>
      <trkpt lat="45.06434" lon="2.76318">
        <ele>1779</ele>
        <time>2016-07-19T11:38:03.000Z</time>
      </trkpt>
      <trkpt lat="45.06435" lon="2.7632">
        <ele>1779</ele>
        <time>2016-07-19T11:38:04.000Z</time>
      </trkpt>
      <trkpt lat="45.0645" lon="2.76345">
        <ele>1777</ele>
        <time>2016-07-19T11:38:26.000Z</time>
      </trkpt>
      <trkpt lat="45.0645" lon="2.76346">
        <ele>1777</ele>
        <time>2016-07-19T11:38:27.000Z</time>
      </trkpt>
      <trkpt lat="45.06463" lon="2.76373">
        <ele>1772</ele>
        <time>2016-07-19T11:38:52.000Z</time>
      </trkpt>
      <trkpt lat="45.06464" lon="2.76374">
        <ele>1772</ele>
        <time>2016-07-19T11:38:53.000Z</time>
      </trkpt>
      <trkpt lat="45.06475" lon="2.76402">
        <ele>1766</ele>
        <time>2016-07-19T11:39:21.000Z</time>
      </trkpt>
      <trkpt lat="45.06475" lon="2.76404">
        <ele>1766</ele>
        <time>2016-07-19T11:39:22.000Z</time>
      </trkpt>
      <trkpt lat="45.0649" lon="2.76428">
        <ele>1764</ele>
        <time>2016-07-19T11:39:42.000Z</time>
      </trkpt>
      <trkpt lat="45.06491" lon="2.7643">
        <ele>1764</ele>
        <time>2016-07-19T11:39:43.000Z</time>
      </trkpt>
      <trkpt lat="45.06506" lon="2.76454">
        <ele>1762</ele>
        <time>2016-07-19T11:40:02.000Z</time>
      </trkpt>
      <trkpt lat="45.06506" lon="2.76455">
        <ele>1762</ele>
        <time>2016-07-19T11:40:03.000Z</time>
      </trkpt>
      <trkpt lat="45.06521" lon="2.7648">
        <ele>1760</ele>
        <time>2016-07-19T11:40:22.000Z</time>
      </trkpt>
      <trkpt lat="45.06522" lon="2.76481">
        <ele>1760</ele>
        <time>2016-07-19T11:40:23.000Z</time>
      </trkpt>
      <trkpt lat="45.06534" lon="2.76509">
        <ele>1758</ele>
        <time>2016-07-19T11:40:42.000Z</time>
      </trkpt>
      <trkpt lat="45.06534" lon="2.7651">
        <ele>1758</ele>
        <time>2016-07-19T11:40:43.000Z</time>
      </trkpt>
      <trkpt lat="45.06547" lon="2.76538">
        <ele>1756</ele>
        <time>2016-07-19T11:41:02.000Z</time>
      </trkpt>
      <trkpt lat="45.06548" lon="2.76539">
        <ele>1756</ele>
        <time>2016-07-19T11:41:03.000Z</time>
      </trkpt>
      <trkpt lat="45.06561" lon="2.76567">
        <ele>1752</ele>
        <time>2016-07-19T11:41:24.000Z</time>
      </trkpt>
      <trkpt lat="45.06562" lon="2.76568">
        <ele>1752</ele>
        <time>2016-07-19T11:41:25.000Z</time>
      </trkpt>
      <trkpt lat="45.06575" lon="2.76596">
        <ele>1748</ele>
        <time>2016-07-19T11:41:45.000Z</time>
      </trkpt>
      <trkpt lat="45.06575" lon="2.76597">
        <ele>1748</ele>
        <time>2016-07-19T11:41:46.000Z</time>
      </trkpt>
      <trkpt lat="45.06585" lon="2.76627">
        <ele>1747</ele>
        <time>2016-07-19T11:42:07.000Z</time>
      </trkpt>
      <trkpt lat="45.06585" lon="2.76628">
        <ele>1747</ele>
        <time>2016-07-19T11:42:08.000Z</time>
      </trkpt>
      <trkpt lat="45.06596" lon="2.76657">
        <ele>1743</ele>
        <time>2016-07-19T11:42:31.000Z</time>
      </trkpt>
      <trkpt lat="45.06596" lon="2.76658">
        <ele>1743</ele>
        <time>2016-07-19T11:42:32.000Z</time>
      </trkpt>
      <trkpt lat="45.06603" lon="2.76689">
        <ele>1743</ele>
        <time>2016-07-19T11:43:03.000Z</time>
      </trkpt>
      <trkpt lat="45.06604" lon="2.76691">
        <ele>1743</ele>
        <time>2016-07-19T11:43:04.000Z</time>
      </trkpt>
      <trkpt lat="45.0661" lon="2.76722">
        <ele>1740</ele>
        <time>2016-07-19T11:43:25.000Z</time>
      </trkpt>
      <trkpt lat="45.0661" lon="2.76723">
        <ele>1740</ele>
        <time>2016-07-19T11:43:26.000Z</time>
      </trkpt>
      <trkpt lat="45.06613" lon="2.76755">
        <ele>1737</ele>
        <time>2016-07-19T11:43:48.000Z</time>
      </trkpt>
      <trkpt lat="45.06613" lon="2.76757">
        <ele>1737</ele>
        <time>2016-07-19T11:43:49.000Z</time>
      </trkpt>
      <trkpt lat="45.06614" lon="2.76788">
        <ele>1734</ele>
        <time>2016-07-19T11:44:10.000Z</time>
      </trkpt>
      <trkpt lat="45.06614" lon="2.7679">
        <ele>1733</ele>
        <time>2016-07-19T11:44:11.000Z</time>
      </trkpt>
      <trkpt lat="45.06614" lon="2.76823">
        <ele>1730</ele>
        <time>2016-07-19T11:44:33.000Z</time>
      </trkpt>
      <trkpt lat="45.06614" lon="2.76825">
        <ele>1730</ele>
        <time>2016-07-19T11:44:34.000Z</time>
      </trkpt>
      <trkpt lat="45.06613" lon="2.76857">
        <ele>1726</ele>
        <time>2016-07-19T11:44:54.000Z</time>
      </trkpt>
      <trkpt lat="45.06613" lon="2.76858">
        <ele>1726</ele>
        <time>2016-07-19T11:44:55.000Z</time>
      </trkpt>
      <trkpt lat="45.06614" lon="2.7689">
        <ele>1723</ele>
        <time>2016-07-19T11:45:14.000Z</time>
      </trkpt>
      <trkpt lat="45.06614" lon="2.76892">
        <ele>1723</ele>
        <time>2016-07-19T11:45:15.000Z</time>
      </trkpt>
      <trkpt lat="45.06612" lon="2.76924">
        <ele>1721</ele>
        <time>2016-07-19T11:45:34.000Z</time>
      </trkpt>
      <trkpt lat="45.06612" lon="2.76926">
        <ele>1721</ele>
        <time>2016-07-19T11:45:35.000Z</time>
      </trkpt>
      <trkpt lat="45.06609" lon="2.76958">
        <ele>1718</ele>
        <time>2016-07-19T11:45:55.000Z</time>
      </trkpt>
      <trkpt lat="45.06608" lon="2.76959">
        <ele>1718</ele>
        <time>2016-07-19T11:45:56.000Z</time>
      </trkpt>
      <trkpt lat="45.06605" lon="2.76992">
        <ele>1715</ele>
        <time>2016-07-19T11:46:16.000Z</time>
      </trkpt>
      <trkpt lat="45.06605" lon="2.76993">
        <ele>1714</ele>
        <time>2016-07-19T11:46:17.000Z</time>
      </trkpt>
      <trkpt lat="45.06602" lon="2.77025">
        <ele>1712</ele>
        <time>2016-07-19T11:46:37.000Z</time>
      </trkpt>
      <trkpt lat="45.06601" lon="2.77027">
        <ele>1712</ele>
        <time>2016-07-19T11:46:38.000Z</time>
      </trkpt>
      <trkpt lat="45.06597" lon="2.77059">
        <ele>1710</ele>
        <time>2016-07-19T11:46:58.000Z</time>
      </trkpt>
      <trkpt lat="45.06597" lon="2.7706">
        <ele>1710</ele>
        <time>2016-07-19T11:46:59.000Z</time>
      </trkpt>
      <trkpt lat="45.06584" lon="2.77087">
        <ele>1706</ele>
        <time>2016-07-19T11:47:22.000Z</time>
      </trkpt>
      <trkpt lat="45.06584" lon="2.77089">
        <ele>1706</ele>
        <time>2016-07-19T11:47:23.000Z</time>
      </trkpt>
      <trkpt lat="45.06573" lon="2.77119">
        <ele>1699</ele>
        <time>2016-07-19T11:47:45.000Z</time>
      </trkpt>
      <trkpt lat="45.06573" lon="2.7712">
        <ele>1699</ele>
        <time>2016-07-19T11:47:46.000Z</time>
      </trkpt>
      <trkpt lat="45.06567" lon="2.77152">
        <ele>1695</ele>
        <time>2016-07-19T11:48:07.000Z</time>
      </trkpt>
      <trkpt lat="45.06567" lon="2.77154">
        <ele>1695</ele>
        <time>2016-07-19T11:48:08.000Z</time>
      </trkpt>
      <trkpt lat="45.06563" lon="2.77186">
        <ele>1693</ele>
        <time>2016-07-19T11:48:28.000Z</time>
      </trkpt>
      <trkpt lat="45.06563" lon="2.77187">
        <ele>1692</ele>
        <time>2016-07-19T11:48:29.000Z</time>
      </trkpt>
      <trkpt lat="45.06558" lon="2.7722">
        <ele>1691</ele>
        <time>2016-07-19T11:48:51.000Z</time>
      </trkpt>
      <trkpt lat="45.06558" lon="2.77221">
        <ele>1691</ele>
        <time>2016-07-19T11:48:52.000Z</time>
      </trkpt>
      <trkpt lat="45.06552" lon="2.77253">
        <ele>1687</ele>
        <time>2016-07-19T11:49:22.000Z</time>
      </trkpt>
      <trkpt lat="45.06552" lon="2.77254">
        <ele>1687</ele>
        <time>2016-07-19T11:49:23.000Z</time>
      </trkpt>
      <trkpt lat="45.06551" lon="2.77286">
        <ele>1684</ele>
        <time>2016-07-19T11:49:53.000Z</time>
      </trkpt>
      <trkpt lat="45.06551" lon="2.77287">
        <ele>1684</ele>
        <time>2016-07-19T11:49:54.000Z</time>
      </trkpt>
      <trkpt lat="45.06548" lon="2.7732">
        <ele>1683</ele>
        <time>2016-07-19T11:50:16.000Z</time>
      </trkpt>
      <trkpt lat="45.06548" lon="2.77321">
        <ele>1683</ele>
        <time>2016-07-19T11:50:17.000Z</time>
      </trkpt>
      <trkpt lat="45.06547" lon="2.77355">
        <ele>1681</ele>
        <time>2016-07-19T11:50:37.000Z</time>
      </trkpt>
      <trkpt lat="45.06547" lon="2.77356">
        <ele>1681</ele>
        <time>2016-07-19T11:50:38.000Z</time>
      </trkpt>
      <trkpt lat="45.06542" lon="2.77388">
        <ele>1677</ele>
        <time>2016-07-19T11:50:58.000Z</time>
      </trkpt>
      <trkpt lat="45.06541" lon="2.77389">
        <ele>1677</ele>
        <time>2016-07-19T11:50:59.000Z</time>
      </trkpt>
      <trkpt lat="45.06537" lon="2.77421">
        <ele>1674</ele>
        <time>2016-07-19T11:51:19.000Z</time>
      </trkpt>
      <trkpt lat="45.06536" lon="2.77422">
        <ele>1674</ele>
        <time>2016-07-19T11:51:20.000Z</time>
      </trkpt>
      <trkpt lat="45.06534" lon="2.77455">
        <ele>1671</ele>
        <time>2016-07-19T11:51:43.000Z</time>
      </trkpt>
      <trkpt lat="45.06534" lon="2.77456">
        <ele>1670</ele>
        <time>2016-07-19T11:51:44.000Z</time>
      </trkpt>
      <trkpt lat="45.06532" lon="2.77489">
        <ele>1666</ele>
        <time>2016-07-19T11:52:07.000Z</time>
      </trkpt>
      <trkpt lat="45.06532" lon="2.77491">
        <ele>1666</ele>
        <time>2016-07-19T11:52:08.000Z</time>
      </trkpt>
      <trkpt lat="45.06525" lon="2.77521">
        <ele>1662</ele>
        <time>2016-07-19T11:52:42.000Z</time>
      </trkpt>
      <trkpt lat="45.06525" lon="2.77522">
        <ele>1662</ele>
        <time>2016-07-19T11:52:43.000Z</time>
      </trkpt>
      <trkpt lat="45.06517" lon="2.77554">
        <ele>1659</ele>
        <time>2016-07-19T11:53:05.000Z</time>
      </trkpt>
      <trkpt lat="45.06517" lon="2.77556">
        <ele>1659</ele>
        <time>2016-07-19T11:53:06.000Z</time>
      </trkpt>
      <trkpt lat="45.06521" lon="2.77588">
        <ele>1657</ele>
        <time>2016-07-19T11:53:57.000Z</time>
      </trkpt>
      <trkpt lat="45.06521" lon="2.77589">
        <ele>1657</ele>
        <time>2016-07-19T11:53:58.000Z</time>
      </trkpt>
      <trkpt lat="45.06526" lon="2.77621">
        <ele>1655</ele>
        <time>2016-07-19T11:54:43.000Z</time>
      </trkpt>
      <trkpt lat="45.06526" lon="2.77623">
        <ele>1655</ele>
        <time>2016-07-19T11:54:44.000Z</time>
      </trkpt>
      <trkpt lat="45.06525" lon="2.77655">
        <ele>1654</ele>
        <time>2016-07-19T11:55:03.000Z</time>
      </trkpt>
      <trkpt lat="45.06525" lon="2.77657">
        <ele>1654</ele>
        <time>2016-07-19T11:55:04.000Z</time>
      </trkpt>
      <trkpt lat="45.06526" lon="2.77689">
        <ele>1650</ele>
        <time>2016-07-19T11:55:28.000Z</time>
      </trkpt>
      <trkpt lat="45.06526" lon="2.77691">
        <ele>1650</ele>
        <time>2016-07-19T11:55:29.000Z</time>
      </trkpt>
      <trkpt lat="45.06503" lon="2.77689">
        <ele>1642</ele>
        <time>2016-07-19T11:55:55.000Z</time>
      </trkpt>
      <trkpt lat="45.06502" lon="2.77688">
        <ele>1642</ele>
        <time>2016-07-19T11:55:56.000Z</time>
      </trkpt>
      <trkpt lat="45.06485" lon="2.77667">
        <ele>1642</ele>
        <time>2016-07-19T11:56:15.000Z</time>
      </trkpt>
      <trkpt lat="45.06484" lon="2.77666">
        <ele>1642</ele>
        <time>2016-07-19T11:56:16.000Z</time>
      </trkpt>
      <trkpt lat="45.06462" lon="2.77656">
        <ele>1642</ele>
        <time>2016-07-19T11:56:40.000Z</time>
      </trkpt>
      <trkpt lat="45.06461" lon="2.77656">
        <ele>1642</ele>
        <time>2016-07-19T11:56:41.000Z</time>
      </trkpt>
      <trkpt lat="45.06455" lon="2.77687">
        <ele>1629</ele>
        <time>2016-07-19T11:57:49.000Z</time>
      </trkpt>
      <trkpt lat="45.06456" lon="2.77688">
        <ele>1629</ele>
        <time>2016-07-19T11:57:50.000Z</time>
      </trkpt>
      <trkpt lat="45.06451" lon="2.7772">
        <ele>1627</ele>
        <time>2016-07-19T11:58:14.000Z</time>
      </trkpt>
      <trkpt lat="45.06451" lon="2.77721">
        <ele>1627</ele>
        <time>2016-07-19T11:58:15.000Z</time>
      </trkpt>
      <trkpt lat="45.0643" lon="2.77734">
        <ele>1619</ele>
        <time>2016-07-19T11:58:41.000Z</time>
      </trkpt>
      <trkpt lat="45.06429" lon="2.77735">
        <ele>1619</ele>
        <time>2016-07-19T11:58:42.000Z</time>
      </trkpt>
      <trkpt lat="45.06408" lon="2.77748">
        <ele>1612</ele>
        <time>2016-07-19T11:59:18.000Z</time>
      </trkpt>
      <trkpt lat="45.06408" lon="2.77749">
        <ele>1612</ele>
        <time>2016-07-19T11:59:19.000Z</time>
      </trkpt>
      <trkpt lat="45.064" lon="2.77779">
        <ele>1609</ele>
        <time>2016-07-19T11:59:45.000Z</time>
      </trkpt>
      <trkpt lat="45.064" lon="2.7778">
        <ele>1609</ele>
        <time>2016-07-19T11:59:46.000Z</time>
      </trkpt>
      <trkpt lat="45.06383" lon="2.77802">
        <ele>1601</ele>
        <time>2016-07-19T12:00:23.000Z</time>
      </trkpt>
      <trkpt lat="45.06382" lon="2.77803">
        <ele>1601</ele>
        <time>2016-07-19T12:00:24.000Z</time>
      </trkpt>
      <trkpt lat="45.06362" lon="2.77819">
        <ele>1593</ele>
        <time>2016-07-19T12:00:50.000Z</time>
      </trkpt>
      <trkpt lat="45.06361" lon="2.7782">
        <ele>1592</ele>
        <time>2016-07-19T12:00:51.000Z</time>
      </trkpt>
      <trkpt lat="45.06343" lon="2.77841">
        <ele>1589</ele>
        <time>2016-07-19T12:01:12.000Z</time>
      </trkpt>
      <trkpt lat="45.06343" lon="2.77842">
        <ele>1589</ele>
        <time>2016-07-19T12:01:13.000Z</time>
      </trkpt>
      <trkpt lat="45.06326" lon="2.77865">
        <ele>1584</ele>
        <time>2016-07-19T12:01:37.000Z</time>
      </trkpt>
      <trkpt lat="45.06326" lon="2.77865">
        <ele>1584</ele>
        <time>2016-07-19T12:01:38.000Z</time>
      </trkpt>
      <trkpt lat="45.06307" lon="2.77885">
        <ele>1580</ele>
        <time>2016-07-19T12:02:00.000Z</time>
      </trkpt>
      <trkpt lat="45.06306" lon="2.77886">
        <ele>1580</ele>
        <time>2016-07-19T12:02:01.000Z</time>
      </trkpt>
      <trkpt lat="45.06286" lon="2.77902">
        <ele>1575</ele>
        <time>2016-07-19T12:02:24.000Z</time>
      </trkpt>
      <trkpt lat="45.06285" lon="2.77902">
        <ele>1575</ele>
        <time>2016-07-19T12:02:25.000Z</time>
      </trkpt>
      <trkpt lat="45.06264" lon="2.77918">
        <ele>1572</ele>
        <time>2016-07-19T12:02:47.000Z</time>
      </trkpt>
      <trkpt lat="45.06264" lon="2.77919">
        <ele>1572</ele>
        <time>2016-07-19T12:02:48.000Z</time>
      </trkpt>
      <trkpt lat="45.0624" lon="2.77916">
        <ele>1568</ele>
        <time>2016-07-19T12:03:12.000Z</time>
      </trkpt>
      <trkpt lat="45.06239" lon="2.77915">
        <ele>1568</ele>
        <time>2016-07-19T12:03:13.000Z</time>
      </trkpt>
      <trkpt lat="45.06224" lon="2.77891">
        <ele>1566</ele>
        <time>2016-07-19T12:03:33.000Z</time>
      </trkpt>
      <trkpt lat="45.06223" lon="2.7789">
        <ele>1566</ele>
        <time>2016-07-19T12:03:34.000Z</time>
      </trkpt>
      <trkpt lat="45.06201" lon="2.77896">
        <ele>1563</ele>
        <time>2016-07-19T12:04:03.000Z</time>
      </trkpt>
      <trkpt lat="45.062" lon="2.77898">
        <ele>1563</ele>
        <time>2016-07-19T12:04:04.000Z</time>
      </trkpt>
      <trkpt lat="45.06188" lon="2.77925">
        <ele>1560</ele>
        <time>2016-07-19T12:04:25.000Z</time>
      </trkpt>
      <trkpt lat="45.06187" lon="2.77927">
        <ele>1560</ele>
        <time>2016-07-19T12:04:26.000Z</time>
      </trkpt>
      <trkpt lat="45.06171" lon="2.77949">
        <ele>1554</ele>
        <time>2016-07-19T12:04:49.000Z</time>
      </trkpt>
      <trkpt lat="45.0617" lon="2.7795">
        <ele>1554</ele>
        <time>2016-07-19T12:04:50.000Z</time>
      </trkpt>
      <trkpt lat="45.06151" lon="2.7797">
        <ele>1549</ele>
        <time>2016-07-19T12:06:16.000Z</time>
      </trkpt>
      <trkpt lat="45.06151" lon="2.7797">
        <ele>1549</ele>
        <time>2016-07-19T12:06:17.000Z</time>
      </trkpt>
      <trkpt lat="45.06128" lon="2.77978">
        <ele>1550</ele>
        <time>2016-07-19T12:06:46.000Z</time>
      </trkpt>
      <trkpt lat="45.06128" lon="2.77977">
        <ele>1551</ele>
        <time>2016-07-19T12:06:47.000Z</time>
      </trkpt>
      <trkpt lat="45.06115" lon="2.77951">
        <ele>1549</ele>
        <time>2016-07-19T12:07:09.000Z</time>
      </trkpt>
      <trkpt lat="45.06114" lon="2.7795">
        <ele>1549</ele>
        <time>2016-07-19T12:07:10.000Z</time>
      </trkpt>
      <trkpt lat="45.06101" lon="2.77923">
        <ele>1545</ele>
        <time>2016-07-19T12:07:31.000Z</time>
      </trkpt>
      <trkpt lat="45.061" lon="2.77922">
        <ele>1545</ele>
        <time>2016-07-19T12:07:32.000Z</time>
      </trkpt>
      <trkpt lat="45.06084" lon="2.779">
        <ele>1548</ele>
        <time>2016-07-19T12:08:23.000Z</time>
      </trkpt>
      <trkpt lat="45.06083" lon="2.77899">
        <ele>1547</ele>
        <time>2016-07-19T12:08:24.000Z</time>
      </trkpt>
      <trkpt lat="45.06065" lon="2.77878">
        <ele>1544</ele>
        <time>2016-07-19T12:08:43.000Z</time>
      </trkpt>
      <trkpt lat="45.06064" lon="2.77877">
        <ele>1544</ele>
        <time>2016-07-19T12:08:44.000Z</time>
      </trkpt>
      <trkpt lat="45.06047" lon="2.77856">
        <ele>1544</ele>
        <time>2016-07-19T12:09:04.000Z</time>
      </trkpt>
      <trkpt lat="45.06046" lon="2.77855">
        <ele>1544</ele>
        <time>2016-07-19T12:09:05.000Z</time>
      </trkpt>
      <trkpt lat="45.06032" lon="2.77829">
        <ele>1543</ele>
        <time>2016-07-19T12:09:24.000Z</time>
      </trkpt>
      <trkpt lat="45.06032" lon="2.77827">
        <ele>1543</ele>
        <time>2016-07-19T12:09:25.000Z</time>
      </trkpt>
      <trkpt lat="45.06017" lon="2.77802">
        <ele>1539</ele>
        <time>2016-07-19T12:09:48.000Z</time>
      </trkpt>
      <trkpt lat="45.06016" lon="2.77801">
        <ele>1539</ele>
        <time>2016-07-19T12:09:49.000Z</time>
      </trkpt>
      <trkpt lat="45.05997" lon="2.7782">
        <ele>1537</ele>
        <time>2016-07-19T12:10:43.000Z</time>
      </trkpt>
      <trkpt lat="45.05996" lon="2.77821">
        <ele>1536</ele>
        <time>2016-07-19T12:10:44.000Z</time>
      </trkpt>
      <trkpt lat="45.0598" lon="2.77844">
        <ele>1531</ele>
        <time>2016-07-19T12:11:10.000Z</time>
      </trkpt>
      <trkpt lat="45.05979" lon="2.77845">
        <ele>1531</ele>
        <time>2016-07-19T12:11:11.000Z</time>
      </trkpt>
      <trkpt lat="45.05957" lon="2.77853">
        <ele>1530</ele>
        <time>2016-07-19T12:11:41.000Z</time>
      </trkpt>
      <trkpt lat="45.05956" lon="2.77854">
        <ele>1529</ele>
        <time>2016-07-19T12:11:42.000Z</time>
      </trkpt>
      <trkpt lat="45.05933" lon="2.77854">
        <ele>1527</ele>
        <time>2016-07-19T12:12:01.000Z</time>
      </trkpt>
      <trkpt lat="45.05932" lon="2.77855">
        <ele>1527</ele>
        <time>2016-07-19T12:12:02.000Z</time>
      </trkpt>
      <trkpt lat="45.05916" lon="2.77878">
        <ele>1523</ele>
        <time>2016-07-19T12:12:22.000Z</time>
      </trkpt>
      <trkpt lat="45.05915" lon="2.77879">
        <ele>1523</ele>
        <time>2016-07-19T12:12:23.000Z</time>
      </trkpt>
      <trkpt lat="45.05901" lon="2.77905">
        <ele>1520</ele>
        <time>2016-07-19T12:12:44.000Z</time>
      </trkpt>
      <trkpt lat="45.05901" lon="2.77906">
        <ele>1520</ele>
        <time>2016-07-19T12:12:45.000Z</time>
      </trkpt>
      <trkpt lat="45.05884" lon="2.7793">
        <ele>1515</ele>
        <time>2016-07-19T12:13:06.000Z</time>
      </trkpt>
      <trkpt lat="45.05883" lon="2.7793">
        <ele>1515</ele>
        <time>2016-07-19T12:13:07.000Z</time>
      </trkpt>
      <trkpt lat="45.05864" lon="2.77948">
        <ele>1513</ele>
        <time>2016-07-19T12:13:27.000Z</time>
      </trkpt>
      <trkpt lat="45.05862" lon="2.77949">
        <ele>1513</ele>
        <time>2016-07-19T12:13:28.000Z</time>
      </trkpt>
      <trkpt lat="45.05842" lon="2.77965">
        <ele>1511</ele>
        <time>2016-07-19T12:13:46.000Z</time>
      </trkpt>
      <trkpt lat="45.05841" lon="2.77966">
        <ele>1511</ele>
        <time>2016-07-19T12:13:47.000Z</time>
      </trkpt>
      <trkpt lat="45.05822" lon="2.77983">
        <ele>1510</ele>
        <time>2016-07-19T12:14:06.000Z</time>
      </trkpt>
      <trkpt lat="45.05821" lon="2.77984">
        <ele>1510</ele>
        <time>2016-07-19T12:14:07.000Z</time>
      </trkpt>
      <trkpt lat="45.05803" lon="2.78005">
        <ele>1508</ele>
        <time>2016-07-19T12:14:25.000Z</time>
      </trkpt>
      <trkpt lat="45.05802" lon="2.78006">
        <ele>1508</ele>
        <time>2016-07-19T12:14:26.000Z</time>
      </trkpt>
      <trkpt lat="45.05784" lon="2.78027">
        <ele>1506</ele>
        <time>2016-07-19T12:14:44.000Z</time>
      </trkpt>
      <trkpt lat="45.05782" lon="2.78028">
        <ele>1506</ele>
        <time>2016-07-19T12:14:45.000Z</time>
      </trkpt>
      <trkpt lat="45.05765" lon="2.78049">
        <ele>1504</ele>
        <time>2016-07-19T12:15:03.000Z</time>
      </trkpt>
      <trkpt lat="45.05764" lon="2.7805">
        <ele>1504</ele>
        <time>2016-07-19T12:15:04.000Z</time>
      </trkpt>
      <trkpt lat="45.05751" lon="2.78075">
        <ele>1502</ele>
        <time>2016-07-19T12:15:24.000Z</time>
      </trkpt>
      <trkpt lat="45.0575" lon="2.78077">
        <ele>1502</ele>
        <time>2016-07-19T12:15:25.000Z</time>
      </trkpt>
      <trkpt lat="45.05742" lon="2.78107">
        <ele>1500</ele>
        <time>2016-07-19T12:15:43.000Z</time>
      </trkpt>
      <trkpt lat="45.05742" lon="2.78108">
        <ele>1499</ele>
        <time>2016-07-19T12:15:44.000Z</time>
      </trkpt>
      <trkpt lat="45.05736" lon="2.78139">
        <ele>1498</ele>
        <time>2016-07-19T12:16:03.000Z</time>
      </trkpt>
      <trkpt lat="45.05735" lon="2.78141">
        <ele>1498</ele>
        <time>2016-07-19T12:16:04.000Z</time>
      </trkpt>
      <trkpt lat="45.05727" lon="2.7817">
        <ele>1495</ele>
        <time>2016-07-19T12:16:23.000Z</time>
      </trkpt>
      <trkpt lat="45.05726" lon="2.78172">
        <ele>1496</ele>
        <time>2016-07-19T12:16:24.000Z</time>
      </trkpt>
      <trkpt lat="45.05714" lon="2.78201">
        <ele>1495</ele>
        <time>2016-07-19T12:16:45.000Z</time>
      </trkpt>
      <trkpt lat="45.05714" lon="2.78203">
        <ele>1495</ele>
        <time>2016-07-19T12:16:46.000Z</time>
      </trkpt>
      <trkpt lat="45.05699" lon="2.78228">
        <ele>1492</ele>
        <time>2016-07-19T12:17:06.000Z</time>
      </trkpt>
      <trkpt lat="45.05699" lon="2.7823">
        <ele>1492</ele>
        <time>2016-07-19T12:17:07.000Z</time>
      </trkpt>
      <trkpt lat="45.05691" lon="2.78262">
        <ele>1491</ele>
        <time>2016-07-19T12:17:27.000Z</time>
      </trkpt>
      <trkpt lat="45.05691" lon="2.78264">
        <ele>1491</ele>
        <time>2016-07-19T12:17:28.000Z</time>
      </trkpt>
      <trkpt lat="45.0569" lon="2.78296">
        <ele>1491</ele>
        <time>2016-07-19T12:17:46.000Z</time>
      </trkpt>
      <trkpt lat="45.05689" lon="2.78297">
        <ele>1491</ele>
        <time>2016-07-19T12:17:47.000Z</time>
      </trkpt>
      <trkpt lat="45.05686" lon="2.78329">
        <ele>1489</ele>
        <time>2016-07-19T12:18:07.000Z</time>
      </trkpt>
      <trkpt lat="45.05686" lon="2.7833">
        <ele>1489</ele>
        <time>2016-07-19T12:18:08.000Z</time>
      </trkpt>
      <trkpt lat="45.05681" lon="2.78362">
        <ele>1486</ele>
        <time>2016-07-19T12:18:29.000Z</time>
      </trkpt>
      <trkpt lat="45.05681" lon="2.78363">
        <ele>1486</ele>
        <time>2016-07-19T12:18:30.000Z</time>
      </trkpt>
      <trkpt lat="45.05674" lon="2.78395">
        <ele>1483</ele>
        <time>2016-07-19T12:18:50.000Z</time>
      </trkpt>
      <trkpt lat="45.05674" lon="2.78397">
        <ele>1483</ele>
        <time>2016-07-19T12:18:51.000Z</time>
      </trkpt>
      <trkpt lat="45.05668" lon="2.78428">
        <ele>1481</ele>
        <time>2016-07-19T12:19:10.000Z</time>
      </trkpt>
      <trkpt lat="45.05667" lon="2.78429">
        <ele>1481</ele>
        <time>2016-07-19T12:19:11.000Z</time>
      </trkpt>
      <trkpt lat="45.05663" lon="2.78462">
        <ele>1477</ele>
        <time>2016-07-19T12:19:31.000Z</time>
      </trkpt>
      <trkpt lat="45.05663" lon="2.78463">
        <ele>1477</ele>
        <time>2016-07-19T12:19:32.000Z</time>
      </trkpt>
      <trkpt lat="45.05662" lon="2.78496">
        <ele>1474</ele>
        <time>2016-07-19T12:19:53.000Z</time>
      </trkpt>
      <trkpt lat="45.05662" lon="2.78497">
        <ele>1474</ele>
        <time>2016-07-19T12:19:54.000Z</time>
      </trkpt>
      <trkpt lat="45.05664" lon="2.7853">
        <ele>1472</ele>
        <time>2016-07-19T12:20:13.000Z</time>
      </trkpt>
      <trkpt lat="45.05664" lon="2.78532">
        <ele>1472</ele>
        <time>2016-07-19T12:20:14.000Z</time>
      </trkpt>
      <trkpt lat="45.05669" lon="2.78565">
        <ele>1469</ele>
        <time>2016-07-19T12:20:33.000Z</time>
      </trkpt>
      <trkpt lat="45.05669" lon="2.78566">
        <ele>1469</ele>
        <time>2016-07-19T12:20:34.000Z</time>
      </trkpt>
      <trkpt lat="45.05682" lon="2.78595">
        <ele>1467</ele>
        <time>2016-07-19T12:20:54.000Z</time>
      </trkpt>
      <trkpt lat="45.05683" lon="2.78596">
        <ele>1467</ele>
        <time>2016-07-19T12:20:55.000Z</time>
      </trkpt>
      <trkpt lat="45.05674" lon="2.78626">
        <ele>1458</ele>
        <time>2016-07-19T12:21:32.000Z</time>
      </trkpt>
      <trkpt lat="45.05674" lon="2.78627">
        <ele>1458</ele>
        <time>2016-07-19T12:21:33.000Z</time>
      </trkpt>
      <trkpt lat="45.05656" lon="2.78646">
        <ele>1450</ele>
        <time>2016-07-19T12:21:57.000Z</time>
      </trkpt>
      <trkpt lat="45.05655" lon="2.78647">
        <ele>1450</ele>
        <time>2016-07-19T12:21:58.000Z</time>
      </trkpt>
      <trkpt lat="45.05634" lon="2.7866">
        <ele>1446</ele>
        <time>2016-07-19T12:22:25.000Z</time>
      </trkpt>
      <trkpt lat="45.05633" lon="2.7866">
        <ele>1445</ele>
        <time>2016-07-19T12:22:26.000Z</time>
      </trkpt>
      <trkpt lat="45.05611" lon="2.78673">
        <ele>1439</ele>
        <time>2016-07-19T12:22:53.000Z</time>
      </trkpt>
      <trkpt lat="45.05611" lon="2.78674">
        <ele>1439</ele>
        <time>2016-07-19T12:22:54.000Z</time>
      </trkpt>
      <trkpt lat="45.05592" lon="2.78692">
        <ele>1436</ele>
        <time>2016-07-19T12:23:18.000Z</time>
      </trkpt>
      <trkpt lat="45.05591" lon="2.78693">
        <ele>1436</ele>
        <time>2016-07-19T12:23:19.000Z</time>
      </trkpt>
      <trkpt lat="45.05571" lon="2.7871">
        <ele>1432</ele>
        <time>2016-07-19T12:23:40.000Z</time>
      </trkpt>
      <trkpt lat="45.0557" lon="2.78711">
        <ele>1432</ele>
        <time>2016-07-19T12:23:41.000Z</time>
      </trkpt>
      <trkpt lat="45.0555" lon="2.78728">
        <ele>1429</ele>
        <time>2016-07-19T12:24:01.000Z</time>
      </trkpt>
      <trkpt lat="45.05549" lon="2.78729">
        <ele>1429</ele>
        <time>2016-07-19T12:24:02.000Z</time>
      </trkpt>
      <trkpt lat="45.05527" lon="2.7874">
        <ele>1425</ele>
        <time>2016-07-19T12:24:22.000Z</time>
      </trkpt>
      <trkpt lat="45.05526" lon="2.78741">
        <ele>1424</ele>
        <time>2016-07-19T12:24:23.000Z</time>
      </trkpt>
      <trkpt lat="45.05505" lon="2.78752">
        <ele>1422</ele>
        <time>2016-07-19T12:24:42.000Z</time>
      </trkpt>
      <trkpt lat="45.05503" lon="2.78752">
        <ele>1422</ele>
        <time>2016-07-19T12:24:43.000Z</time>
      </trkpt>
      <trkpt lat="45.05482" lon="2.78763">
        <ele>1417</ele>
        <time>2016-07-19T12:25:09.000Z</time>
      </trkpt>
      <trkpt lat="45.05481" lon="2.78764">
        <ele>1417</ele>
        <time>2016-07-19T12:25:10.000Z</time>
      </trkpt>
      <trkpt lat="45.05466" lon="2.78789">
        <ele>1417</ele>
        <time>2016-07-19T12:25:31.000Z</time>
      </trkpt>
      <trkpt lat="45.05465" lon="2.78791">
        <ele>1417</ele>
        <time>2016-07-19T12:25:32.000Z</time>
      </trkpt>
      <trkpt lat="45.0545" lon="2.78815">
        <ele>1416</ele>
        <time>2016-07-19T12:25:52.000Z</time>
      </trkpt>
      <trkpt lat="45.05449" lon="2.78816">
        <ele>1416</ele>
        <time>2016-07-19T12:25:53.000Z</time>
      </trkpt>
      <trkpt lat="45.05428" lon="2.7883">
        <ele>1414</ele>
        <time>2016-07-19T12:26:14.000Z</time>
      </trkpt>
      <trkpt lat="45.05426" lon="2.7883">
        <ele>1413</ele>
        <time>2016-07-19T12:26:15.000Z</time>
      </trkpt>
      <trkpt lat="45.05404" lon="2.7883">
        <ele>1412</ele>
        <time>2016-07-19T12:26:33.000Z</time>
      </trkpt>
      <trkpt lat="45.05402" lon="2.7883">
        <ele>1412</ele>
        <time>2016-07-19T12:26:34.000Z</time>
      </trkpt>
      <trkpt lat="45.05379" lon="2.78825">
        <ele>1408</ele>
        <time>2016-07-19T12:26:54.000Z</time>
      </trkpt>
      <trkpt lat="45.05378" lon="2.78825">
        <ele>1408</ele>
        <time>2016-07-19T12:26:55.000Z</time>
      </trkpt>
      <trkpt lat="45.05355" lon="2.78819">
        <ele>1408</ele>
        <time>2016-07-19T12:27:14.000Z</time>
      </trkpt>
      <trkpt lat="45.05354" lon="2.78818">
        <ele>1409</ele>
        <time>2016-07-19T12:27:15.000Z</time>
      </trkpt>
      <trkpt lat="45.05331" lon="2.78825">
        <ele>1407</ele>
        <time>2016-07-19T12:27:34.000Z</time>
      </trkpt>
      <trkpt lat="45.05331" lon="2.78827">
        <ele>1407</ele>
        <time>2016-07-19T12:27:35.000Z</time>
      </trkpt>
      <trkpt lat="45.05324" lon="2.78858">
        <ele>1405</ele>
        <time>2016-07-19T12:27:54.000Z</time>
      </trkpt>
      <trkpt lat="45.05324" lon="2.7886">
        <ele>1405</ele>
        <time>2016-07-19T12:27:55.000Z</time>
      </trkpt>
      <trkpt lat="45.05328" lon="2.78892">
        <ele>1404</ele>
        <time>2016-07-19T12:28:13.000Z</time>
      </trkpt>
      <trkpt lat="45.05328" lon="2.78893">
        <ele>1404</ele>
        <time>2016-07-19T12:28:14.000Z</time>
      </trkpt>
      <trkpt lat="45.05326" lon="2.78926">
        <ele>1403</ele>
        <time>2016-07-19T12:28:33.000Z</time>
      </trkpt>
      <trkpt lat="45.05326" lon="2.78927">
        <ele>1403</ele>
        <time>2016-07-19T12:28:34.000Z</time>
      </trkpt>
      <trkpt lat="45.05319" lon="2.78958">
        <ele>1401</ele>
        <time>2016-07-19T12:28:52.000Z</time>
      </trkpt>
      <trkpt lat="45.05318" lon="2.78959">
        <ele>1401</ele>
        <time>2016-07-19T12:28:53.000Z</time>
      </trkpt>
      <trkpt lat="45.05312" lon="2.78991">
        <ele>1400</ele>
        <time>2016-07-19T12:29:11.000Z</time>
      </trkpt>
      <trkpt lat="45.05311" lon="2.78992">
        <ele>1400</ele>
        <time>2016-07-19T12:29:12.000Z</time>
      </trkpt>
      <trkpt lat="45.05306" lon="2.79024">
        <ele>1398</ele>
        <time>2016-07-19T12:29:30.000Z</time>
      </trkpt>
      <trkpt lat="45.05305" lon="2.79026">
        <ele>1398</ele>
        <time>2016-07-19T12:29:31.000Z</time>
      </trkpt>
      <trkpt lat="45.05297" lon="2.79056">
        <ele>1396</ele>
        <time>2016-07-19T12:29:50.000Z</time>
      </trkpt>
      <trkpt lat="45.05297" lon="2.79057">
        <ele>1396</ele>
        <time>2016-07-19T12:29:51.000Z</time>
      </trkpt>
      <trkpt lat="45.05293" lon="2.79089">
        <ele>1395</ele>
        <time>2016-07-19T12:30:08.000Z</time>
      </trkpt>
      <trkpt lat="45.05293" lon="2.79091">
        <ele>1395</ele>
        <time>2016-07-19T12:30:09.000Z</time>
      </trkpt>
      <trkpt lat="45.05294" lon="2.79124">
        <ele>1395</ele>
        <time>2016-07-19T12:30:28.000Z</time>
      </trkpt>
      <trkpt lat="45.05294" lon="2.79126">
        <ele>1395</ele>
        <time>2016-07-19T12:30:29.000Z</time>
      </trkpt>
      <trkpt lat="45.05296" lon="2.79159">
        <ele>1395</ele>
        <time>2016-07-19T12:30:47.000Z</time>
      </trkpt>
      <trkpt lat="45.05296" lon="2.79161">
        <ele>1395</ele>
        <time>2016-07-19T12:30:48.000Z</time>
      </trkpt>
      <trkpt lat="45.05299" lon="2.79193">
        <ele>1396</ele>
        <time>2016-07-19T12:31:06.000Z</time>
      </trkpt>
      <trkpt lat="45.05299" lon="2.79194">
        <ele>1396</ele>
        <time>2016-07-19T12:31:07.000Z</time>
      </trkpt>
      <trkpt lat="45.05302" lon="2.79226">
        <ele>1395</ele>
        <time>2016-07-19T12:31:25.000Z</time>
      </trkpt>
      <trkpt lat="45.05303" lon="2.79228">
        <ele>1395</ele>
        <time>2016-07-19T12:31:26.000Z</time>
      </trkpt>
      <trkpt lat="45.05305" lon="2.7926">
        <ele>1393</ele>
        <time>2016-07-19T12:31:48.000Z</time>
      </trkpt>
      <trkpt lat="45.05306" lon="2.79261">
        <ele>1393</ele>
        <time>2016-07-19T12:31:49.000Z</time>
      </trkpt>
      <trkpt lat="45.05316" lon="2.7929">
        <ele>1390</ele>
        <time>2016-07-19T12:32:15.000Z</time>
      </trkpt>
      <trkpt lat="45.05316" lon="2.7929">
        <ele>1390</ele>
        <time>2016-07-19T12:32:16.000Z</time>
      </trkpt>
      <trkpt lat="45.05307" lon="2.7932">
        <ele>1390</ele>
        <time>2016-07-19T12:32:46.000Z</time>
      </trkpt>
      <trkpt lat="45.05305" lon="2.7932">
        <ele>1390</ele>
        <time>2016-07-19T12:32:47.000Z</time>
      </trkpt>
      <trkpt lat="45.05286" lon="2.79337">
        <ele>1391</ele>
        <time>2016-07-19T12:33:09.000Z</time>
      </trkpt>
      <trkpt lat="45.05286" lon="2.79338">
        <ele>1391</ele>
        <time>2016-07-19T12:33:10.000Z</time>
      </trkpt>
      <trkpt lat="45.05264" lon="2.79349">
        <ele>1392</ele>
        <time>2016-07-19T12:33:34.000Z</time>
      </trkpt>
      <trkpt lat="45.05263" lon="2.79348">
        <ele>1392</ele>
        <time>2016-07-19T12:33:35.000Z</time>
      </trkpt>
      <trkpt lat="45.05241" lon="2.79356">
        <ele>1393</ele>
        <time>2016-07-19T12:33:57.000Z</time>
      </trkpt>
      <trkpt lat="45.0524" lon="2.79356">
        <ele>1393</ele>
        <time>2016-07-19T12:33:58.000Z</time>
      </trkpt>
      <trkpt lat="45.05217" lon="2.79361">
        <ele>1393</ele>
        <time>2016-07-19T12:34:21.000Z</time>
      </trkpt>
      <trkpt lat="45.05216" lon="2.79361">
        <ele>1393</ele>
        <time>2016-07-19T12:34:22.000Z</time>
      </trkpt>
      <trkpt lat="45.05194" lon="2.79367">
        <ele>1393</ele>
        <time>2016-07-19T12:34:44.000Z</time>
      </trkpt>
      <trkpt lat="45.05193" lon="2.79367">
        <ele>1393</ele>
        <time>2016-07-19T12:34:45.000Z</time>
      </trkpt>
      <trkpt lat="45.05183" lon="2.79379">
        <ele>1402</ele>
        <time>2016-07-19T12:36:16.000Z</time>
      </trkpt>
    </trkseg>
  </trk>
</gpx>